Renton, WA (98056)

3:42 PM PDT on August 30, 2015 (GMT -0700)
Windstone | | Change Station
CLOSE
Current Station
Personal Weather Station
Location: Renton, WA
Elevation: 450 ft
Nearby Weather Stations

Elev 450 ft 47.51 °N, 122.15 °W | Updated 1 minute ago

Mostly Cloudy
Mostly Cloudy
66.6 °F
Feels Like 66.6 °F
N
7.0
Wind Variable Wind from South
Gusts 15.0 mph

Today
High -- | Low -- °F
--% Chance of Precip.
Yesterday
High -- | Low -- °F
Precip. -- in
6:24 AM 7:53 PM
Full, 98% visible
Pressure 29.97 in
Visibility 10.0 miles
Clouds Mostly Cloudy 4000 ft
Dew Point 59 °F
Humidity 76%
Rainfall 1.05 in
Snow Depth Not available.
UV 3 out of 12
Pollen .50 out of 12
Air Quality Not available.
Flu Activity Not available.
METAR KRNT 302153Z 15018KT 10SM BKN040 18/13 A2995 RMK AO2 SLP147 T01780128 $
Pressure 29.97 in
Visibility 10.0 miles
Clouds Mostly Cloudy 4000 ft
Dew Point 59 °F
Humidity 76%
Rainfall 1.05 in
Snow Depth Not available.
UV 3 out of 12
Pollen .50 out of 12
Air Quality Not available.
Flu Activity Not available.
METAR KRNT 302153Z 15018KT 10SM BKN040 18/13 A2995 RMK AO2 SLP147 T01780128 $

10-Day Weather Forecast

×

Almanac

Astronomy

Aug. 30, 2015 Rise Set
Actual Time
Civil Twilight
Nautical Twilight
Astronomical Twilight
Moon
Length of Visible Light
Length of Day
Tomorrow will be .
, % of the Moon is Illuminated

Today's Extremes

State Highs State Lows

Community

WunderPhotos

Upload Photos

1,851,075 photos uploaded!

WunderBlogs® & News

Nearby

Air Quality

  Air Quality AQ Index Pollutant
Not available.

Snow Depth

Station Depth Elevation

Earthquake Activity

City Distance Mag. Time & Date
Minimum magnitude displayed is 2.5.

Coastal Water Temperatures

Place Temperature

Stations

Nearby Weather Stations

Station Location Temp. Windchill Dew Point Humidity Wind Precip. Elev Updated Type